WAT3630 SAZR-SADF
Flight info
| Callsign | WAT3630 |
|---|---|
| Flight time | N/A |
| Altitude | 7000 |
| Route | TIMKU2G/19 TIMKU W73 IRASU W68 ASADA DCT TRINI DCT VUKMI DCT EVTEL DCT OGMIM |
| Aircraft | BE58/L-SDFGRY/C |
Departure
| Time | 2026-04-25 16:24 |
|---|---|
| Airport | Santa Rosa Airport (SAZR) |
Arrival
| Time | N/A |
|---|---|
| Airport | San Fernando Airport (SADF) |
| Time | Latitude | Longitude | Altitude | Speed | Heading |
|---|---|---|---|---|---|
| 2026-04-25 16:23 | -36.62159 | -64.26419 | 1247 ft | 173 kts | 122° |
| 2026-04-25 16:24 | -36.62725 | -64.25069 | 1571 ft | 173 kts | 120° |
| 2026-04-25 16:24 | -36.63254 | -64.23704 | 1718 ft | 179 kts | 116° |
| 2026-04-25 16:24 | -36.63812 | -64.22311 | 1790 ft | 178 kts | 122° |
| 2026-04-25 16:24 | -36.64461 | -64.21002 | 1869 ft | 178 kts | 123° |
| 2026-04-25 16:25 | -36.65001 | -64.19644 | 2006 ft | 174 kts | 116° |
| 2026-04-25 16:25 | -36.65322 | -64.18727 | 2082 ft | 172 kts | 120° |
| 2026-04-25 16:25 | -36.66074 | -64.16988 | 2165 ft | 172 kts | 122° |
| 2026-04-25 16:25 | -36.66597 | -64.15643 | 2225 ft | 174 kts | 118° |
| 2026-04-25 16:26 | -36.67081 | -64.14313 | 2425 ft | 167 kts | 108° |
| 2026-04-25 16:26 | -36.67157 | -64.12840 | 2487 ft | 171 kts | 83° |
| 2026-04-25 16:26 | -36.66845 | -64.11404 | 2618 ft | 170 kts | 65° |
| 2026-04-25 16:26 | -36.66198 | -64.10131 | 2645 ft | 175 kts | 56° |
| 2026-04-25 16:27 | -36.65660 | -64.08806 | 2755 ft | 174 kts | 62° |
| 2026-04-25 16:27 | -36.64930 | -64.07559 | 2648 ft | 184 kts | 49° |
| 2026-04-25 16:27 | -36.64118 | -64.06395 | 2852 ft | 175 kts | 48° |
| 2026-04-25 16:27 | -36.63277 | -64.05349 | 3078 ft | 165 kts | 40° |
| 2026-04-25 16:28 | -36.62366 | -64.04448 | 3121 ft | 170 kts | 31° |
| 2026-04-25 16:28 | -36.61370 | -64.03682 | 3290 ft | 166 kts | 29° |
| 2026-04-25 16:28 | -36.60412 | -64.02898 | 3393 ft | 167 kts | 30° |
| 2026-04-25 16:28 | -36.59440 | -64.02222 | 3673 ft | 153 kts | 19° |
| 2026-04-25 16:29 | -36.58542 | -64.01529 | 3926 ft | 149 kts | 33° |
| 2026-04-25 16:29 | -36.57731 | -64.00765 | 4140 ft | 147 kts | 33° |
| 2026-04-25 16:29 | -36.56923 | -63.99992 | 4344 ft | 146 kts | 33° |
| 2026-04-25 16:29 | -36.56116 | -63.99215 | 4541 ft | 146 kts | 33° |
| 2026-04-25 16:30 | -36.55329 | -63.98420 | 4734 ft | 146 kts | 37° |
| 2026-04-25 16:30 | -36.54583 | -63.97587 | 4926 ft | 147 kts | 37° |
| 2026-04-25 16:30 | -36.53813 | -63.96731 | 5135 ft | 149 kts | 36° |
| 2026-04-25 16:30 | -36.53038 | -63.95874 | 5349 ft | 150 kts | 36° |
| 2026-04-25 16:31 | -36.52256 | -63.95009 | 5567 ft | 150 kts | 36° |
| 2026-04-25 16:31 | -36.51481 | -63.94150 | 5784 ft | 150 kts | 35° |
| 2026-04-25 16:31 | -36.50694 | -63.93280 | 5997 ft | 150 kts | 35° |
| 2026-04-25 16:31 | -36.49912 | -63.92416 | 6204 ft | 150 kts | 34° |
| 2026-04-25 16:32 | -36.49130 | -63.91551 | 6412 ft | 150 kts | 34° |
| 2026-04-25 16:32 | -36.48348 | -63.90688 | 6615 ft | 151 kts | 34° |
| 2026-04-25 16:32 | -36.47570 | -63.89828 | 6817 ft | 151 kts | 34° |
| 2026-04-25 16:32 | -36.46787 | -63.88964 | 7017 ft | 150 kts | 34° |
| 2026-04-25 16:33 | -36.46001 | -63.88096 | 7217 ft | 150 kts | 34° |
| 2026-04-25 16:33 | -36.45219 | -63.87233 | 7411 ft | 150 kts | 34° |
| 2026-04-25 16:33 | -36.44428 | -63.86364 | 7477 ft | 160 kts | 34° |
| 2026-04-25 16:33 | -36.43534 | -63.85384 | 7359 ft | 179 kts | 35° |
| 2026-04-25 16:34 | -36.42569 | -63.84315 | 7284 ft | 189 kts | 36° |
| 2026-04-25 16:34 | -36.41578 | -63.83220 | 7235 ft | 194 kts | 36° |
| 2026-04-25 16:34 | -36.40562 | -63.82098 | 7200 ft | 197 kts | 36° |
| 2026-04-25 16:34 | -36.39530 | -63.80960 | 7172 ft | 198 kts | 36° |
| 2026-04-25 16:35 | -36.38501 | -63.79825 | 7114 ft | 200 kts | 37° |
| 2026-04-25 16:35 | -36.37448 | -63.78666 | 7065 ft | 201 kts | 37° |
| 2026-04-25 16:35 | -36.36406 | -63.77517 | 7037 ft | 201 kts | 36° |
| 2026-04-25 16:35 | -36.35357 | -63.76364 | 7038 ft | 199 kts | 36° |
| 2026-04-25 16:36 | -36.34317 | -63.75221 | 7038 ft | 199 kts | 36° |
| 2026-04-25 16:36 | -36.33982 | -63.74850 | 7037 ft | 199 kts | 37° |
| 2026-04-25 16:36 | -36.32694 | -63.72439 | 7035 ft | 203 kts | 57° |
| 2026-04-25 16:36 | -36.31993 | -63.70913 | 7034 ft | 202 kts | 57° |
| 2026-04-25 16:37 | -36.31300 | -63.69408 | 7035 ft | 202 kts | 57° |
| 2026-04-25 16:37 | -36.30688 | -63.67825 | 7037 ft | 203 kts | 66° |
| 2026-04-25 16:37 | -36.30188 | -63.66196 | 7036 ft | 204 kts | 67° |
| 2026-04-25 16:37 | -36.29689 | -63.64536 | 7034 ft | 204 kts | 67° |
| 2026-04-25 16:38 | -36.29201 | -63.62900 | 7035 ft | 204 kts | 68° |
| 2026-04-25 16:38 | -36.28713 | -63.61254 | 7036 ft | 204 kts | 67° |
| 2026-04-25 16:38 | -36.28225 | -63.59603 | 7036 ft | 204 kts | 68° |
| 2026-04-25 16:38 | -36.27733 | -63.57941 | 7038 ft | 204 kts | 68° |
| 2026-04-25 16:39 | -36.27244 | -63.56288 | 7036 ft | 204 kts | 68° |
| 2026-04-25 16:39 | -36.26757 | -63.54642 | 7035 ft | 204 kts | 68° |
| 2026-04-25 16:39 | -36.26273 | -63.53005 | 7033 ft | 204 kts | 68° |
| 2026-04-25 16:39 | -36.25780 | -63.51338 | 7036 ft | 205 kts | 68° |
| 2026-04-25 16:40 | -36.25288 | -63.49673 | 7036 ft | 206 kts | 67° |
| 2026-04-25 16:40 | -36.24799 | -63.48024 | 7037 ft | 206 kts | 68° |
| 2026-04-25 16:40 | -36.24305 | -63.46357 | 7036 ft | 206 kts | 68° |
| 2026-04-25 16:40 | -36.23807 | -63.44678 | 7036 ft | 206 kts | 68° |
| 2026-04-25 16:41 | -36.23317 | -63.43028 | 7031 ft | 206 kts | 68° |
| 2026-04-25 16:41 | -36.22987 | -63.41917 | 7033 ft | 206 kts | 68° |
| 2026-04-25 16:41 | -36.21833 | -63.38036 | 7034 ft | 206 kts | 67° |
| 2026-04-25 16:42 | -36.21334 | -63.36360 | 7034 ft | 207 kts | 68° |
| 2026-04-25 16:42 | -36.20835 | -63.34682 | 7034 ft | 207 kts | 67° |
| 2026-04-25 16:42 | -36.20342 | -63.33029 | 7028 ft | 207 kts | 67° |
| 2026-04-25 16:42 | -36.19843 | -63.31355 | 7030 ft | 206 kts | 67° |
| 2026-04-25 16:43 | -36.19350 | -63.29703 | 7026 ft | 206 kts | 67° |
| 2026-04-25 16:43 | -36.18850 | -63.28026 | 7025 ft | 205 kts | 67° |
| 2026-04-25 16:43 | -36.18361 | -63.26389 | 7028 ft | 205 kts | 67° |
| 2026-04-25 16:43 | -36.17864 | -63.24727 | 7026 ft | 205 kts | 67° |
| 2026-04-25 16:44 | -36.17371 | -63.23076 | 7023 ft | 206 kts | 67° |
| 2026-04-25 16:44 | -36.17222 | -63.22578 | 7024 ft | 206 kts | 67° |
| 2026-04-25 16:44 | -36.16866 | -63.21390 | 7026 ft | 205 kts | 67° |
| 2026-04-25 16:44 | -36.16372 | -63.19738 | 7025 ft | 205 kts | 67° |
| 2026-04-25 16:45 | -36.15875 | -63.18080 | 7023 ft | 204 kts | 67° |
| 2026-04-25 16:45 | -36.15382 | -63.16433 | 7024 ft | 205 kts | 67° |
| 2026-04-25 16:45 | -36.14884 | -63.14775 | 7023 ft | 205 kts | 67° |
| 2026-04-25 16:45 | -36.14392 | -63.13133 | 7025 ft | 205 kts | 67° |
| 2026-04-25 16:46 | -36.13897 | -63.11485 | 7027 ft | 204 kts | 67° |
| 2026-04-25 16:46 | -36.13398 | -63.09823 | 7027 ft | 205 kts | 67° |
| 2026-04-25 16:46 | -36.12905 | -63.08184 | 7026 ft | 205 kts | 67° |
| 2026-04-25 16:46 | -36.12569 | -63.07068 | 7024 ft | 205 kts | 67° |
| 2026-04-25 16:47 | -36.11909 | -63.04874 | 7022 ft | 206 kts | 67° |
| 2026-04-25 16:47 | -36.11410 | -63.03216 | 7023 ft | 205 kts | 67° |
| 2026-04-25 16:47 | -36.10914 | -63.01569 | 7027 ft | 205 kts | 67° |
| 2026-04-25 16:47 | -36.10419 | -62.99926 | 7027 ft | 205 kts | 67° |
| 2026-04-25 16:48 | -36.09916 | -62.98259 | 7027 ft | 205 kts | 67° |
| 2026-04-25 16:48 | -36.09419 | -62.96612 | 7025 ft | 205 kts | 67° |
| 2026-04-25 16:48 | -36.08921 | -62.94964 | 7023 ft | 205 kts | 66° |
| 2026-04-25 16:48 | -36.08424 | -62.93318 | 7023 ft | 205 kts | 66° |
| 2026-04-25 16:49 | -36.07928 | -62.91680 | 7020 ft | 205 kts | 67° |
| 2026-04-25 16:49 | -36.07429 | -62.90031 | 7016 ft | 205 kts | 67° |
| 2026-04-25 16:49 | -36.06931 | -62.88383 | 7013 ft | 206 kts | 67° |
| 2026-04-25 16:49 | -36.06431 | -62.86734 | 7008 ft | 206 kts | 67° |
| 2026-04-25 16:50 | -36.05924 | -62.85061 | 7009 ft | 205 kts | 67° |
| 2026-04-25 16:50 | -36.05424 | -62.83411 | 7009 ft | 205 kts | 67° |
| 2026-04-25 16:50 | -36.04925 | -62.81765 | 7013 ft | 205 kts | 67° |
| 2026-04-25 16:50 | -36.04425 | -62.80120 | 7013 ft | 204 kts | 67° |
| 2026-04-25 16:51 | -36.03932 | -62.78494 | 7012 ft | 204 kts | 67° |
| 2026-04-25 16:51 | -36.03431 | -62.76845 | 7011 ft | 205 kts | 67° |
| 2026-04-25 16:51 | -36.02930 | -62.75197 | 7009 ft | 205 kts | 67° |
| 2026-04-25 16:51 | -36.02599 | -62.74109 | 7010 ft | 205 kts | 67° |
| 2026-04-25 16:52 | -36.01924 | -62.71894 | 7006 ft | 204 kts | 67° |
| 2026-04-25 16:52 | -36.01429 | -62.70266 | 7007 ft | 204 kts | 67° |
| 2026-04-25 16:52 | -36.00928 | -62.68622 | 7011 ft | 203 kts | 67° |